Time;durP1;ratioP1;P1;durP2;ratioP2;P2;SDS_P1;SDS_P2;PMS_P1;PMS_P2;Temp;Humidity;BMP_temperature;BMP_pressure;BME280_temperature;BME280_humidity;BME280_pressure;Samples;Min_cycle;Max_cycle;Signal;HPM_P1;HPM_P2
2022/05/11 00:02:24;;;;;;;1.52;1.38;;;16.80;58.90;;;;;;5009072;28;20220;-59
2022/05/11 00:04:54;;;;;;;1.95;1.20;;;16.80;58.80;;;;;;5009018;28;20239;-59
2022/05/11 00:07:27;;;;;;;2.17;1.10;;;16.80;58.80;;;;;;5008395;28;20217;-59
2022/05/11 00:09:57;;;;;;;1.35;1.00;;;16.80;58.80;;;;;;5008335;28;20696;-60
2022/05/11 00:12:28;;;;;;;2.00;1.10;;;16.90;58.90;;;;;;5008465;28;20196;-59
2022/05/11 00:14:59;;;;;;;2.15;1.13;;;16.90;58.90;;;;;;5008323;28;20201;-59
2022/05/11 00:17:29;;;;;;;2.35;1.27;;;16.90;58.90;;;;;;5007988;28;20771;-59
2022/05/11 00:20:00;;;;;;;1.33;1.15;;;16.90;58.70;;;;;;5007848;28;20279;-59
2022/05/11 00:22:32;;;;;;;2.42;1.10;;;17.00;58.70;;;;;;5005408;28;20298;-59
2022/05/11 00:25:03;;;;;;;1.35;1.00;;;17.00;58.70;;;;;;5007893;28;20653;-59
2022/05/11 00:27:34;;;;;;;1.98;1.10;;;17.00;58.60;;;;;;5008190;28;20201;-59
2022/05/11 00:30:05;;;;;;;2.05;0.98;;;17.00;58.60;;;;;;5007924;28;20248;-58
2022/05/11 00:32:35;;;;;;;1.10;0.88;;;17.10;58.60;;;;;;5004868;28;20192;-59
2022/05/11 00:35:07;;;;;;;1.15;0.80;;;17.10;58.40;;;;;;5005542;28;20776;-59
2022/05/11 00:37:39;;;;;;;1.58;1.20;;;17.10;58.20;;;;;;5006846;28;20243;-59
2022/05/11 00:40:10;;;;;;;1.35;0.90;;;17.10;58.20;;;;;;5007664;28;20770;-59
2022/05/11 00:42:41;;;;;;;1.30;1.02;;;17.20;58.40;;;;;;5007572;28;20260;-59
2022/05/11 00:45:12;;;;;;;1.70;1.13;;;17.20;58.40;;;;;;5007824;28;20207;-59
2022/05/11 00:47:46;;;;;;;1.00;0.90;;;17.20;58.30;;;;;;5008025;28;20295;-59
2022/05/11 00:50:19;;;;;;;1.00;0.82;;;17.30;58.40;;;;;;5009837;28;20220;-59
2022/05/11 00:52:55;;;;;;;3.05;1.13;;;17.30;58.40;;;;;;5011241;28;20204;-59
2022/05/11 00:55:29;;;;;;;1.08;0.85;;;17.30;58.40;;;;;;5009208;28;20196;-58
2022/05/11 00:58:01;;;;;;;1.40;0.80;;;17.30;58.30;;;;;;5011637;28;20235;-58
2022/05/11 01:00:32;;;;;;;1.25;1.05;;;17.40;58.40;;;;;;5007630;28;20714;-58
2022/05/11 01:03:07;;;;;;;1.08;0.77;;;17.40;58.40;;;;;;5011147;28;20252;-59
2022/05/11 01:05:38;;;;;;;1.25;0.80;;;17.40;58.30;;;;;;5012964;28;20912;-58
2022/05/11 01:08:11;;;;;;;1.20;0.80;;;17.40;58.30;;;;;;5011864;28;20653;-59
2022/05/11 01:10:42;;;;;;;1.55;0.90;;;17.50;58.20;;;;;;5012140;28;20208;-59
2022/05/11 01:13:16;;;;;;;1.00;0.80;;;17.50;58.20;;;;;;5011846;28;20220;-59
2022/05/11 01:15:49;;;;;;;1.40;1.00;;;17.50;58.20;;;;;;5011351;28;20310;-58
2022/05/11 01:18:24;;;;;;;1.13;0.90;;;17.50;58.10;;;;;;5010297;28;20653;-59
2022/05/11 01:20:55;;;;;;;1.30;1.00;;;17.60;58.20;;;;;;5011859;28;20196;-59
2022/05/11 01:23:34;;;;;;;1.20;0.63;;;17.60;58.20;;;;;;5012287;28;20217;-59
2022/05/11 01:26:07;;;;;;;1.42;0.88;;;17.60;58.10;;;;;;5010612;28;20200;-59
2022/05/11 01:28:43;;;;;;;1.27;0.98;;;17.60;58.10;;;;;;5012049;28;20281;-59
2022/05/11 01:31:15;;;;;;;1.10;0.80;;;17.60;58.10;;;;;;5011218;28;20248;-59
2022/05/11 01:33:49;;;;;;;0.90;0.80;;;17.60;58.10;;;;;;5009561;28;20205;-59
2022/05/11 01:36:26;;;;;;;1.08;0.82;;;17.60;58.00;;;;;;5010459;28;20707;-59
2022/05/11 01:38:58;;;;;;;1.33;1.00;;;17.70;58.20;;;;;;5011159;28;20222;-59
2022/05/11 01:41:33;;;;;;;1.17;0.70;;;17.70;58.10;;;;;;5010964;28;20196;-59
2022/05/11 01:44:04;;;;;;;2.10;0.70;;;17.70;58.10;;;;;;5010943;28;20286;-59
2022/05/11 01:46:35;;;;;;;1.42;0.98;;;17.80;58.10;;;;;;5010747;28;20201;-58
2022/05/11 01:49:06;;;;;;;1.38;0.95;;;17.80;58.10;;;;;;5010791;28;20224;-59
2022/05/11 01:51:36;;;;;;;1.13;0.80;;;17.80;57.90;;;;;;5010758;28;20275;-59
2022/05/11 01:54:07;;;;;;;2.35;1.35;;;17.80;57.80;;;;;;5010852;28;20290;-59
2022/05/11 01:56:39;;;;;;;1.05;0.90;;;17.80;57.70;;;;;;5011610;28;20275;-59
2022/05/11 01:59:10;;;;;;;1.55;1.15;;;17.90;57.80;;;;;;5010385;28;20624;-59
2022/05/11 02:01:41;;;;;;;1.00;0.80;;;17.90;57.80;;;;;;5009109;28;20197;-59
2022/05/11 02:09:42;;;;;;;0.90;0.85;;;18.00;57.80;;;;;;5010236;28;20953;-59
2022/05/11 02:12:15;;;;;;;1.25;0.80;;;18.10;57.90;;;;;;5010917;28;20197;-59
2022/05/11 02:14:46;;;;;;;1.10;0.90;;;18.10;57.80;;;;;;5010444;28;20263;-59
2022/05/11 02:17:20;;;;;;;1.27;0.93;;;18.10;57.90;;;;;;5010162;28;20201;-59
2022/05/11 02:19:50;;;;;;;0.90;0.75;;;18.10;57.80;;;;;;5010102;28;20286;-59
2022/05/11 02:22:21;;;;;;;0.82;0.82;;;18.20;57.80;;;;;;5010455;28;20220;-59
2022/05/11 02:24:51;;;;;;;1.08;0.85;;;18.20;57.80;;;;;;5010893;28;20267;-59
2022/05/11 02:27:24;;;;;;;1.58;1.10;;;18.20;57.70;;;;;;5009653;28;20251;-59
2022/05/11 02:29:54;;;;;;;0.80;0.80;;;18.20;57.70;;;;;;5010412;28;20213;-59
2022/05/11 02:32:25;;;;;;;0.90;0.80;;;18.20;57.70;;;;;;5010023;28;20193;-59
2022/05/11 02:37:38;;;;;;;1.30;0.90;;;18.30;57.70;;;;;;5006732;28;20222;-59
2022/05/11 02:40:10;;;;;;;0.82;0.80;;;18.30;57.60;;;;;;5010280;28;20224;-59
2022/05/11 02:42:42;;;;;;;1.00;0.80;;;18.40;57.60;;;;;;5010087;28;20267;-59
2022/05/11 02:45:14;;;;;;;1.05;0.95;;;18.40;57.60;;;;;;5009456;28;20224;-59
2022/05/11 02:47:45;;;;;;;1.20;0.90;;;18.40;57.60;;;;;;5008300;28;20197;-59
2022/05/11 02:50:22;;;;;;;1.30;1.20;;;18.50;57.60;;;;;;5007558;28;20225;-59
2022/05/11 02:52:53;;;;;;;1.25;1.00;;;18.50;57.50;;;;;;5010420;28;20253;-59
2022/05/11 02:55:24;;;;;;;1.17;1.08;;;18.50;57.50;;;;;;5010069;28;20221;-59
2022/05/11 02:57:56;;;;;;;1.25;1.10;;;18.60;57.40;;;;;;5007704;28;20205;-59
2022/05/11 03:00:27;;;;;;;1.40;0.90;;;18.60;57.40;;;;;;5009327;28;20213;-59
2022/05/11 03:02:57;;;;;;;1.20;0.90;;;18.60;57.40;;;;;;5009546;28;20307;-59
2022/05/11 03:05:28;;;;;;;1.00;0.82;;;18.60;57.50;;;;;;5009819;28;20224;-59
2022/05/11 03:07:58;;;;;;;1.05;0.95;;;18.70;57.40;;;;;;5009811;28;20657;-59
2022/05/11 03:10:29;;;;;;;1.25;0.70;;;18.70;57.40;;;;;;5009904;28;20216;-59
2022/05/11 03:13:02;;;;;;;1.50;0.80;;;18.70;57.40;;;;;;5008693;28;20271;-59
2022/05/11 03:15:33;;;;;;;1.23;1.13;;;18.80;57.40;;;;;;5009958;28;20197;-59
2022/05/11 03:18:03;;;;;;;1.67;1.10;;;18.80;57.30;;;;;;5008870;28;20208;-59
2022/05/11 03:20:34;;;;;;;1.40;0.93;;;18.80;57.20;;;;;;5009860;28;20220;-59
2022/05/11 03:23:05;;;;;;;1.17;1.00;;;18.80;57.10;;;;;;5008360;28;20228;-59
2022/05/11 03:25:35;;;;;;;0.93;0.82;;;18.90;57.00;;;;;;5009571;28;20205;-59
2022/05/11 03:28:08;;;;;;;1.88;0.90;;;18.90;57.00;;;;;;5008673;28;20235;-59
2022/05/11 03:30:39;;;;;;;1.83;1.10;;;18.90;56.90;;;;;;5009121;28;20294;-58
2022/05/11 03:35:56;;;;;;;1.05;0.80;;;19.00;56.90;;;;;;5008825;28;20259;-58
2022/05/11 03:38:26;;;;;;;1.73;0.98;;;19.00;56.90;;;;;;5008334;28;20235;-59
2022/05/11 03:40:57;;;;;;;1.30;0.98;;;19.00;56.90;;;;;;5008202;28;20200;-59
2022/05/11 03:43:30;;;;;;;0.80;0.80;;;19.00;56.80;;;;;;5006731;28;20224;-58
2022/05/11 03:46:00;;;;;;;0.90;0.70;;;19.00;56.70;;;;;;5008934;28;20193;-59
2022/05/11 03:48:31;;;;;;;1.45;0.77;;;19.10;56.80;;;;;;5008200;28;20211;-59
2022/05/11 03:51:01;;;;;;;1.45;0.70;;;19.10;56.80;;;;;;5008787;28;20189;-58
2022/05/11 03:53:32;;;;;;;0.98;0.90;;;19.10;56.70;;;;;;5009165;28;20243;-59
2022/05/11 03:56:03;;;;;;;1.17;1.00;;;19.10;56.70;;;;;;5008318;28;20193;-59
2022/05/11 03:58:35;;;;;;;1.67;0.90;;;19.10;56.60;;;;;;5008578;28;20267;-59
2022/05/11 04:01:06;;;;;;;1.35;0.90;;;19.10;56.60;;;;;;5007909;28;20311;-60
2022/05/11 04:03:36;;;;;;;1.10;1.00;;;19.20;57.20;;;;;;5006031;28;20304;-59
2022/05/11 04:06:07;;;;;;;2.55;1.00;;;19.20;56.60;;;;;;5009308;28;20247;-59
2022/05/11 04:08:38;;;;;;;1.52;0.85;;;19.20;56.50;;;;;;5008568;28;20256;-58
2022/05/11 04:11:09;;;;;;;0.80;0.80;;;19.20;56.40;;;;;;5008488;28;20197;-58
2022/05/11 04:13:42;;;;;;;1.00;0.80;;;19.20;56.30;;;;;;5008371;28;20271;-59
2022/05/11 04:16:13;;;;;;;0.88;0.73;;;19.20;56.80;;;;;;5004061;28;20200;-58
2022/05/11 04:18:43;;;;;;;1.55;0.70;;;19.20;56.10;;;;;;5007630;28;20216;-59
2022/05/11 04:21:14;;;;;;;1.08;0.88;;;19.30;55.90;;;;;;5007747;28;20224;-59
2022/05/11 04:23:45;;;;;;;0.98;0.80;;;19.30;55.70;;;;;;5007119;28;20224;-58
2022/05/11 04:26:16;;;;;;;0.75;0.70;;;19.20;55.50;;;;;;5007900;28;20205;-58
2022/05/11 04:28:48;;;;;;;1.10;0.90;;;19.30;55.50;;;;;;5007300;28;20240;-59
2022/05/11 04:31:19;;;;;;;1.10;0.80;;;19.30;55.50;;;;;;5008655;28;20629;-59
2022/05/11 04:33:50;;;;;;;1.38;0.90;;;19.30;55.50;;;;;;5006011;28;20546;-59
2022/05/11 04:36:21;;;;;;;1.13;0.80;;;19.30;55.50;;;;;;5006230;28;21435;-59
2022/05/11 04:38:52;;;;;;;0.95;0.80;;;19.30;55.40;;;;;;5008431;28;20704;-59
2022/05/11 04:41:23;;;;;;;1.65;0.75;;;19.30;55.40;;;;;;5007943;28;20205;-59
2022/05/11 04:43:56;;;;;;;1.88;1.13;;;19.30;55.40;;;;;;5008267;28;20766;-59
2022/05/11 04:46:26;;;;;;;1.02;0.80;;;19.30;55.40;;;;;;5006973;28;20689;-58
2022/05/11 04:49:16;;;;;;;1.30;0.80;;;19.30;55.50;;;;;;5005457;28;20217;-59
2022/05/11 04:51:47;;;;;;;1.75;0.70;;;19.30;55.50;;;;;;5007193;28;20251;-59
2022/05/11 04:54:18;;;;;;;1.30;0.90;;;19.30;55.50;;;;;;5006274;28;20282;-59
2022/05/11 04:56:48;;;;;;;0.50;0.50;;;19.30;55.50;;;;;;5007602;28;20224;-59
2022/05/11 04:59:22;;;;;;;1.42;0.90;;;19.20;55.50;;;;;;5007505;28;20284;-58
2022/05/11 05:01:52;;;;;;;1.50;0.85;;;19.30;55.60;;;;;;5007518;28;20215;-59
2022/05/11 05:04:23;;;;;;;1.33;0.77;;;19.20;55.50;;;;;;5008015;28;20229;-58
2022/05/11 05:06:54;;;;;;;0.65;0.52;;;19.20;55.50;;;;;;5007850;28;20627;-59
2022/05/11 05:09:25;;;;;;;0.80;0.60;;;19.20;55.30;;;;;;5006978;28;20248;-59
2022/05/11 05:11:56;;;;;;;1.08;0.82;;;19.30;55.40;;;;;;5008011;28;20248;-59
2022/05/11 05:14:28;;;;;;;1.05;0.85;;;19.20;55.30;;;;;;5006615;28;20263;-59
2022/05/11 05:17:04;;;;;;;0.90;0.60;;;19.20;55.20;;;;;;5008019;28;20729;-59
2022/05/11 05:19:36;;;;;;;0.88;0.80;;;19.20;55.20;;;;;;5007012;28;20716;-59
2022/05/11 05:22:07;;;;;;;0.75;0.60;;;19.20;55.10;;;;;;5008038;28;20201;-59
2022/05/11 05:24:37;;;;;;;1.40;0.85;;;19.20;55.10;;;;;;5007542;28;20291;-59
2022/05/11 05:27:09;;;;;;;0.68;0.60;;;19.20;55.10;;;;;;5007641;28;20778;-59
2022/05/11 05:32:28;;;;;;;0.75;0.60;;;19.10;55.10;;;;;;5008183;28;20279;-59
2022/05/11 05:34:58;;;;;;;2.28;0.90;;;19.10;55.10;;;;;;5007894;28;20189;-59
2022/05/11 05:37:29;;;;;;;0.82;0.63;;;19.10;54.80;;;;;;5011695;28;20669;-60
2022/05/11 05:40:01;;;;;;;1.10;0.73;;;19.10;54.60;;;;;;5011324;28;20251;-59
2022/05/11 05:42:32;;;;;;;1.08;0.80;;;19.10;54.60;;;;;;5011006;28;20255;-59
2022/05/11 05:45:04;;;;;;;1.33;0.80;;;19.10;54.60;;;;;;5011758;28;20778;-60
2022/05/11 05:47:36;;;;;;;1.80;0.88;;;19.10;54.80;;;;;;5010788;28;20240;-59
2022/05/11 05:50:07;;;;;;;2.17;0.85;;;19.10;54.80;;;;;;5010684;28;20299;-59
2022/05/11 05:52:37;;;;;;;1.75;0.85;;;19.00;54.70;;;;;;5008598;28;20229;-59
2022/05/11 05:55:09;;;;;;;1.27;0.80;;;19.00;54.70;;;;;;5010119;28;20331;-59
2022/05/11 05:57:39;;;;;;;1.23;0.90;;;19.00;54.70;;;;;;5010662;28;20233;-58
2022/05/11 06:00:12;;;;;;;1.48;1.20;;;19.00;54.70;;;;;;5010827;28;20248;-58
2022/05/11 06:02:43;;;;;;;3.38;1.45;;;19.00;54.40;;;;;;5011084;28;20200;-58
2022/05/11 06:05:15;;;;;;;3.55;1.20;;;19.00;54.10;;;;;;5010810;28;20260;-58
2022/05/11 06:07:45;;;;;;;2.30;1.52;;;19.00;54.00;;;;;;5010026;28;20193;-58
2022/05/11 06:10:16;;;;;;;1.52;1.08;;;19.00;53.90;;;;;;5009616;28;20217;-58
2022/05/11 06:12:46;;;;;;;2.22;1.02;;;19.00;53.90;;;;;;5010538;28;20193;-58
2022/05/11 06:15:19;;;;;;;3.05;1.35;;;19.00;53.90;;;;;;5011121;28;20205;-58
2022/05/11 06:17:49;;;;;;;2.47;1.40;;;19.00;53.90;;;;;;5010644;28;20193;-58
2022/05/11 06:20:20;;;;;;;1.88;1.17;;;19.00;54.00;;;;;;5009162;28;20240;-58
2022/05/11 06:22:50;;;;;;;3.58;1.42;;;19.00;54.00;;;;;;5008893;28;20189;-58
2022/05/11 06:25:22;;;;;;;2.28;1.33;;;19.00;53.90;;;;;;5008937;28;20256;-58
2022/05/11 06:27:53;;;;;;;4.03;1.05;;;19.00;54.00;;;;;;5009566;28;20251;-58
2022/05/11 06:30:26;;;;;;;1.48;1.20;;;19.00;54.60;;;;;;5010615;28;20213;-58
2022/05/11 06:32:57;;;;;;;2.38;1.33;;;19.00;54.00;;;;;;5010360;28;20236;-58
2022/05/11 06:35:27;;;;;;;2.13;1.08;;;19.00;54.10;;;;;;5009941;28;20287;-58
2022/05/11 06:37:58;;;;;;;1.88;1.13;;;18.90;54.10;;;;;;5008698;28;20229;-58
2022/05/11 06:40:29;;;;;;;2.00;1.05;;;18.90;54.10;;;;;;5009903;28;20241;-58
2022/05/11 06:43:01;;;;;;;2.80;1.38;;;18.90;54.20;;;;;;5007826;28;20236;-57
2022/05/11 06:45:34;;;;;;;1.75;0.90;;;18.80;54.20;;;;;;5008958;28;20563;-58
2022/05/11 06:48:04;;;;;;;2.55;1.33;;;18.80;54.30;;;;;;5009876;28;20259;-58
2022/05/11 06:50:35;;;;;;;2.60;1.20;;;18.80;54.30;;;;;;5009599;28;20256;-58
2022/05/11 06:53:13;;;;;;;1.75;1.20;;;18.80;54.30;;;;;;5010393;28;20270;-58
2022/05/11 07:01:17;;;;;;;1.92;1.30;;;18.70;54.40;;;;;;4985629;28;20228;-58
2022/05/11 07:03:48;;;;;;;1.90;1.40;;;18.60;54.40;;;;;;5009390;28;20193;-58
2022/05/11 07:06:18;;;;;;;2.20;1.25;;;18.60;54.40;;;;;;5009118;28;20283;-58
2022/05/11 07:08:49;;;;;;;1.85;1.25;;;18.60;54.40;;;;;;5009616;28;20279;-57
2022/05/11 07:14:08;;;;;;;1.88;1.40;;;18.50;54.40;;;;;;5009606;28;20200;-58
2022/05/11 07:16:41;;;;;;;1.50;1.40;;;18.50;54.50;;;;;;5007173;28;20197;-59
2022/05/11 07:19:13;;;;;;;2.25;1.45;;;18.50;54.50;;;;;;5008497;28;20267;-57
2022/05/11 07:21:43;;;;;;;1.90;1.40;;;18.50;54.60;;;;;;5009266;28;20284;-58
2022/05/11 07:24:14;;;;;;;1.55;1.40;;;18.40;54.60;;;;;;5009627;28;20291;-58
2022/05/11 07:26:44;;;;;;;2.17;1.40;;;18.40;54.60;;;;;;5009490;28;20291;-58
2022/05/11 07:29:15;;;;;;;1.70;1.38;;;18.40;54.60;;;;;;5008935;28;20221;-58
2022/05/11 07:31:47;;;;;;;2.50;1.40;;;18.40;54.70;;;;;;5008789;28;20193;-58
2022/05/11 07:34:18;;;;;;;1.98;1.40;;;18.30;54.70;;;;;;5008275;28;20292;-58
2022/05/11 07:36:54;;;;;;;1.77;1.38;;;18.30;54.70;;;;;;5008324;28;20230;-58
2022/05/11 07:39:26;;;;;;;3.53;1.58;;;18.30;54.70;;;;;;5008062;28;20212;-57
2022/05/11 07:41:57;;;;;;;1.60;1.40;;;18.30;54.80;;;;;;5009471;28;20197;-58
2022/05/11 07:44:27;;;;;;;1.50;1.40;;;18.20;54.80;;;;;;5007213;28;20303;-58
2022/05/11 07:47:00;;;;;;;2.25;1.40;;;18.20;54.80;;;;;;4992284;28;20233;-58
2022/05/11 07:49:30;;;;;;;3.13;1.50;;;18.20;54.90;;;;;;4992189;28;20292;-58
2022/05/11 07:52:04;;;;;;;2.15;1.50;;;18.20;54.90;;;;;;4992158;28;20616;-58
2022/05/11 07:54:35;;;;;;;2.58;1.63;;;18.10;55.10;;;;;;4992130;28;20213;-58
2022/05/11 07:59:57;;;;;;;2.53;1.50;;;18.10;54.90;;;;;;4991724;28;20584;-57
2022/05/11 08:02:32;;;;;;;1.45;1.35;;;18.10;55.00;;;;;;4991854;28;20193;-57
2022/05/11 08:05:04;;;;;;;2.22;1.55;;;18.10;54.90;;;;;;4992602;28;20275;-58
2022/05/11 08:07:40;;;;;;;3.08;1.83;;;18.00;55.00;;;;;;4992063;28;20201;-58
2022/05/11 08:10:13;;;;;;;2.22;1.40;;;18.00;55.00;;;;;;4992287;28;20217;-58
2022/05/11 08:12:43;;;;;;;1.50;1.40;;;18.00;55.00;;;;;;4991845;28;20193;-58
2022/05/11 08:15:15;;;;;;;3.58;1.63;;;18.00;55.10;;;;;;4991133;28;20248;-58
2022/05/11 08:17:49;;;;;;;1.85;1.42;;;18.00;55.10;;;;;;4990945;28;20201;-57
2022/05/11 08:20:21;;;;;;;2.05;1.45;;;17.90;55.10;;;;;;4991272;28;20225;-58
2022/05/11 08:22:53;;;;;;;1.60;1.50;;;17.90;55.10;;;;;;4991232;28;20294;-58
2022/05/11 08:25:25;;;;;;;1.60;1.50;;;17.90;55.10;;;;;;4971836;28;20226;-57
2022/05/11 08:27:58;;;;;;;1.65;1.55;;;17.80;55.10;;;;;;4971967;28;20253;-58
2022/05/11 08:33:27;;;;;;;1.98;1.48;;;17.80;55.10;;;;;;4972803;28;20309;-58
2022/05/11 08:35:59;;;;;;;2.70;1.95;;;17.70;55.10;;;;;;4978896;28;20205;-58
2022/05/11 08:38:32;;;;;;;2.20;1.90;;;17.70;55.20;;;;;;4991843;28;20201;-58
2022/05/11 08:41:06;;;;;;;2.05;1.80;;;17.70;55.20;;;;;;4991761;28;20202;-57
2022/05/11 08:43:39;;;;;;;1.90;1.80;;;17.70;55.20;;;;;;4991553;28;20193;-58
2022/05/11 08:46:20;;;;;;;2.08;1.70;;;17.70;55.30;;;;;;4991394;28;20268;-58
2022/05/11 08:48:59;;;;;;;2.25;1.63;;;17.60;55.30;;;;;;4991661;28;20225;-58
2022/05/11 08:51:38;;;;;;;1.73;1.40;;;17.60;55.40;;;;;;4991907;28;20201;-58
2022/05/11 08:54:16;;;;;;;2.22;1.63;;;17.60;55.40;;;;;;4991058;28;20197;-58
2022/05/11 08:56:47;;;;;;;1.92;1.75;;;17.60;55.50;;;;;;4991359;28;20268;-58
2022/05/11 08:59:23;;;;;;;2.10;1.60;;;17.50;55.50;;;;;;4990658;28;20766;-58
2022/05/11 09:01:56;;;;;;;2.42;1.70;;;17.50;55.50;;;;;;4995231;28;20640;-58
2022/05/11 09:04:39;;;;;;;2.38;1.70;;;17.50;55.50;;;;;;5005609;28;20197;-58
2022/05/11 09:07:12;;;;;;;2.13;1.85;;;17.40;55.50;;;;;;5007251;28;20193;-58
2022/05/11 09:09:43;;;;;;;1.98;1.83;;;17.50;55.60;;;;;;5006594;28;20298;-58
2022/05/11 09:12:14;;;;;;;2.53;2.10;;;17.40;55.90;;;;;;5010377;28;20197;-58
2022/05/11 09:14:49;;;;;;;2.25;1.70;;;17.40;56.60;;;;;;5011544;28;20193;-58
2022/05/11 09:17:26;;;;;;;2.38;1.80;;;17.40;56.60;;;;;;5011098;28;20196;-58
2022/05/11 09:20:07;;;;;;;1.90;1.67;;;17.40;56.40;;;;;;5011565;28;20704;-58
2022/05/11 09:22:39;;;;;;;1.92;1.70;;;17.40;56.40;;;;;;5011133;28;20292;-58
2022/05/11 09:25:20;;;;;;;2.28;1.85;;;17.40;56.20;;;;;;5011254;28;20704;-58
2022/05/11 09:27:52;;;;;;;1.95;1.70;;;17.30;56.10;;;;;;5011186;28;20204;-58
2022/05/11 09:30:26;;;;;;;1.80;1.70;;;17.40;56.20;;;;;;5011724;28;20217;-58
2022/05/11 09:33:16;;;;;;;2.50;1.65;;;17.30;56.10;;;;;;5011161;28;20197;-58
2022/05/11 09:35:48;;;;;;;3.38;1.95;;;17.30;56.10;;;;;;5010977;28;20239;-58
2022/05/11 09:38:34;;;;;;;2.30;1.92;;;17.30;56.10;;;;;;5011535;28;20270;-58
2022/05/11 09:41:10;;;;;;;1.92;1.50;;;17.30;56.00;;;;;;5011504;28;21384;-58
2022/05/11 09:43:43;;;;;;;2.28;1.70;;;17.30;56.00;;;;;;5011084;28;20220;-58
2022/05/11 09:46:23;;;;;;;2.00;1.65;;;17.20;56.00;;;;;;5010681;28;20279;-58
2022/05/11 09:49:02;;;;;;;2.17;1.85;;;17.20;56.00;;;;;;5011059;28;20349;-57
2022/05/11 09:51:44;;;;;;;2.67;1.83;;;17.20;56.00;;;;;;5010659;28;20252;-58
2022/05/11 09:54:42;;;;;;;2.42;1.98;;;17.10;55.90;;;;;;5010176;28;20193;-57
2022/05/11 09:57:27;;;;;;;1.65;1.55;;;17.10;55.90;;;;;;4998784;28;20209;-57
2022/05/11 10:00:17;;;;;;;2.38;2.10;;;17.10;55.90;;;;;;5011164;28;20216;-58
2022/05/11 10:02:50;;;;;;;2.25;1.80;;;17.10;55.90;;;;;;5010402;28;20239;-58
2022/05/11 10:05:26;;;;;;;2.85;2.03;;;17.10;55.90;;;;;;5011416;28;20220;-58
2022/05/11 10:08:04;;;;;;;2.03;1.80;;;17.10;55.90;;;;;;5010982;28;20242;-58
2022/05/11 10:10:46;;;;;;;1.98;1.77;;;17.00;55.80;;;;;;5009299;28;20212;-58
2022/05/11 10:13:25;;;;;;;2.08;1.58;;;17.00;55.90;;;;;;5008400;28;20224;-58
2022/05/11 10:21:57;;;;;;;2.50;1.88;;;16.90;55.80;;;;;;5009162;28;20200;-58
2022/05/11 10:24:46;;;;;;;2.13;1.92;;;16.90;55.80;;;;;;5010097;28;20243;-58
2022/05/11 10:27:21;;;;;;;4.50;2.42;;;16.90;55.80;;;;;;5010612;28;20209;-58
2022/05/11 10:30:11;;;;;;;1.65;1.55;;;16.90;55.80;;;;;;5010137;28;20706;-58
2022/05/11 10:32:59;;;;;;;2.20;1.80;;;16.80;55.80;;;;;;5009763;28;20193;-58
2022/05/11 10:35:34;;;;;;;1.90;1.80;;;16.80;55.80;;;;;;5010124;28;20240;-57
2022/05/11 10:38:31;;;;;;;1.90;1.70;;;16.90;55.80;;;;;;5008442;28;20228;-58
2022/05/11 10:41:12;;;;;;;2.10;1.90;;;16.80;55.80;;;;;;5010338;28;20663;-58
2022/05/11 10:43:55;;;;;;;1.80;1.70;;;16.80;55.80;;;;;;5007732;28;20193;-58
2022/05/11 10:46:33;;;;;;;2.05;1.85;;;16.80;55.80;;;;;;5009830;28;20235;-58
2022/05/11 10:49:32;;;;;;;2.42;2.10;;;16.80;55.80;;;;;;5009866;28;20282;-58
2022/05/11 10:52:18;;;;;;;2.58;1.80;;;16.70;55.80;;;;;;4998490;28;20196;-58
2022/05/11 10:54:59;;;;;;;2.55;1.80;;;16.70;55.80;;;;;;5009457;28;20283;-58
2022/05/11 10:57:47;;;;;;;2.13;1.92;;;16.70;55.80;;;;;;5009000;28;20219;-58
2022/05/11 11:00:21;;;;;;;1.92;1.70;;;16.60;55.70;;;;;;5010109;28;20294;-58
2022/05/11 11:03:39;;;;;;;1.88;1.70;;;16.60;55.80;;;;;;5009808;28;20251;-57
2022/05/11 11:09:22;;;;;;;2.08;1.83;;;16.60;55.70;;;;;;5009526;28;20250;-58
2022/05/11 11:12:02;;;;;;;2.53;2.00;;;16.60;55.70;;;;;;5009238;28;20246;-57
2022/05/11 11:14:37;;;;;;;1.70;1.60;;;16.60;55.80;;;;;;5009607;28;20705;-57
2022/05/11 11:17:09;;;;;;;2.17;1.95;;;16.50;55.70;;;;;;5007709;28;20228;-57
2022/05/11 11:19:42;;;;;;;2.28;2.00;;;16.50;55.80;;;;;;5009583;28;20248;-58
2022/05/11 11:22:13;;;;;;;2.40;2.08;;;16.50;55.80;;;;;;5009737;28;20232;-58
2022/05/11 11:24:43;;;;;;;2.50;1.90;;;16.50;55.80;;;;;;5008870;28;20251;-57
2022/05/11 11:27:14;;;;;;;4.47;2.08;;;16.40;55.70;;;;;;5004759;28;20278;-58
2022/05/11 11:30:22;;;;;;;2.40;1.92;;;16.40;55.80;;;;;;5008693;28;20780;-58
2022/05/11 11:33:24;;;;;;;1.90;1.70;;;16.40;55.80;;;;;;5008678;28;20201;-58
2022/05/11 11:36:02;;;;;;;2.38;1.80;;;16.40;56.40;;;;;;5009209;28;20192;-58
2022/05/11 11:38:46;;;;;;;2.28;1.88;;;16.40;55.70;;;;;;5009333;28;20223;-58
2022/05/11 11:41:19;;;;;;;2.15;1.80;;;16.30;55.70;;;;;;5009351;28;20204;-58
2022/05/11 11:43:55;;;;;;;2.20;1.95;;;16.40;55.80;;;;;;5008786;28;20239;-58
2022/05/11 11:46:39;;;;;;;1.77;1.60;;;16.30;55.70;;;;;;5009902;28;20279;-58
2022/05/11 11:49:12;;;;;;;1.90;1.63;;;16.30;55.70;;;;;;5005190;28;20294;-57
2022/05/11 11:51:58;;;;;;;2.38;2.17;;;16.30;55.70;;;;;;5008894;28;20223;-57
2022/05/11 11:54:36;;;;;;;2.28;2.00;;;16.30;55.70;;;;;;5006649;28;20205;-57
2022/05/11 11:57:09;;;;;;;2.30;1.73;;;16.30;55.70;;;;;;5008346;28;20647;-58
2022/05/11 11:59:44;;;;;;;2.10;1.90;;;16.20;55.60;;;;;;5006314;28;20210;-57
2022/05/11 12:02:28;;;;;;;2.13;1.92;;;16.20;55.70;;;;;;5007635;28;20734;-57
2022/05/11 12:05:11;;;;;;;2.40;2.20;;;16.20;55.70;;;;;;5007489;28;20193;-58
2022/05/11 12:16:20;;;;;;;2.13;1.88;;;16.10;55.60;;;;;;4990646;28;20216;-57
2022/05/11 12:18:52;;;;;;;1.90;1.70;;;16.10;55.70;;;;;;4990395;28;20225;-57
2022/05/11 12:21:31;;;;;;;2.47;2.05;;;16.10;55.70;;;;;;4989841;28;20197;-57
2022/05/11 12:24:04;;;;;;;2.25;1.80;;;16.10;55.70;;;;;;4990366;28;20272;-57
2022/05/11 12:26:37;;;;;;;1.95;1.65;;;16.10;55.70;;;;;;4986844;28;20641;-57
2022/05/11 12:32:06;;;;;;;2.22;1.42;;;16.00;55.60;;;;;;4972898;28;20209;-57
2022/05/11 12:34:44;;;;;;;2.28;1.90;;;16.00;55.60;;;;;;4990588;28;20234;-57
2022/05/11 12:37:29;;;;;;;2.10;1.73;;;16.00;55.60;;;;;;4990001;28;20229;-57
2022/05/11 12:40:03;;;;;;;2.10;1.70;;;16.00;55.70;;;;;;4989350;28;20217;-57
2022/05/11 12:42:39;;;;;;;2.33;1.75;;;16.00;55.70;;;;;;4990189;28;20201;-57
2022/05/11 12:45:12;;;;;;;2.05;1.85;;;16.00;55.70;;;;;;4992405;28;20204;-58
2022/05/11 12:47:48;;;;;;;2.53;1.95;;;15.90;55.70;;;;;;4994670;28;20204;-57
2022/05/11 12:50:28;;;;;;;2.28;1.90;;;15.90;55.70;;;;;;4994314;28;20780;-56
2022/05/11 12:53:07;;;;;;;1.98;1.70;;;15.90;55.70;;;;;;4993835;28;20661;-57
2022/05/11 12:55:39;;;;;;;1.77;1.45;;;15.90;55.70;;;;;;4994070;28;20197;-57
2022/05/11 12:58:10;;;;;;;2.10;1.83;;;15.90;55.70;;;;;;4993451;28;20243;-57
2022/05/11 13:00:40;;;;;;;2.33;1.67;;;15.90;55.70;;;;;;4993441;28;20284;-57
2022/05/11 13:03:28;;;;;;;2.13;1.75;;;15.90;55.70;;;;;;4993815;28;20612;-57
2022/05/11 13:06:05;;;;;;;2.05;1.60;;;15.80;55.70;;;;;;4996541;28;20225;-57
2022/05/11 13:08:38;;;;;;;2.20;1.80;;;15.80;55.70;;;;;;4993353;28;20201;-57
2022/05/11 13:11:12;;;;;;;2.30;1.67;;;15.80;55.70;;;;;;4993728;28;20244;-57
2022/05/11 13:13:44;;;;;;;2.20;1.73;;;15.80;55.60;;;;;;4993257;28;20223;-57
2022/05/11 13:16:22;;;;;;;2.22;1.73;;;15.80;55.70;;;;;;4993579;28;20229;-57
2022/05/11 13:19:04;;;;;;;1.77;1.65;;;15.80;55.70;;;;;;4993862;28;20214;-57
2022/05/11 13:21:38;;;;;;;1.73;1.63;;;15.80;55.70;;;;;;4993473;28;20224;-58
2022/05/11 13:24:10;;;;;;;1.85;1.70;;;15.80;55.70;;;;;;4994049;28;20982;-57
2022/05/11 13:26:44;;;;;;;3.13;1.50;;;15.70;55.60;;;;;;4993364;28;20708;-57
2022/05/11 13:29:21;;;;;;;1.73;1.63;;;15.70;55.60;;;;;;4993028;28;20265;-57
2022/05/11 13:32:05;;;;;;;1.95;1.50;;;15.70;55.60;;;;;;4993587;28;20201;-57
2022/05/11 13:34:39;;;;;;;1.88;1.67;;;15.70;55.60;;;;;;4993461;28;20193;-57
2022/05/11 13:37:26;;;;;;;2.03;1.75;;;15.70;55.60;;;;;;4993081;28;20197;-57
2022/05/11 13:39:57;;;;;;;1.45;1.33;;;15.70;55.60;;;;;;4993754;28;20232;-57
2022/05/11 13:42:29;;;;;;;1.92;1.73;;;15.60;55.60;;;;;;4993670;28;20210;-58
2022/05/11 13:45:04;;;;;;;1.75;1.48;;;15.60;55.60;;;;;;4993319;28;20259;-58
2022/05/11 13:50:41;;;;;;;1.63;1.35;;;15.60;55.60;;;;;;4992881;28;20224;-58
2022/05/11 13:53:30;;;;;;;1.85;1.50;;;15.60;55.60;;;;;;4992755;28;20202;-58
2022/05/11 13:56:11;;;;;;;1.60;1.50;;;15.60;55.60;;;;;;4992406;28;20204;-58
2022/05/11 13:58:43;;;;;;;2.00;1.33;;;15.60;55.60;;;;;;4992882;28;20205;-58
2022/05/11 14:01:15;;;;;;;1.67;1.58;;;15.50;55.60;;;;;;4993212;28;20666;-58
2022/05/11 14:03:47;;;;;;;1.50;1.40;;;15.50;55.60;;;;;;4992792;28;20201;-58
2022/05/11 14:06:25;;;;;;;1.58;1.40;;;15.50;55.60;;;;;;4993129;28;20311;-58
2022/05/11 14:08:57;;;;;;;1.40;1.23;;;15.50;55.60;;;;;;4992353;28;20257;-58
2022/05/11 14:11:28;;;;;;;1.40;1.30;;;15.50;55.70;;;;;;4992736;28;20198;-58
2022/05/11 14:13:59;;;;;;;1.50;1.40;;;15.50;55.70;;;;;;4992669;28;20193;-58
2022/05/11 14:16:32;;;;;;;1.50;1.40;;;15.50;55.70;;;;;;4992508;28;20205;-58